Rio Da Conceicao, Brazil
Current Conditions -  °F | °C
As of 4:00 AM on Friday 19 Dec 2014 (Local Time) from SBPJ Reporting Station
Scattered Clouds Scattered Clouds  
Wind Chill: 73°   Ceiling: Unl
Heat Index: 73°   Visibility: 6mi
Dew Point: 72°   Wind: 1mph
Humidity: 94%   Direction: 70°ENE
Pressure: 29.83"   Gusts: NA
Location:  11.4°S, 46.9°W
Report Text: SBPJ 190700Z 07001KT 9999 FEW025 FEW030TCU SCT090 23/22 Q1010
Loading
Personal Weather Stations






























Interactive Weather Map New forecast layout! Learn more

10-Day Weather Forecast

Advertisements
Track Severe Weather on mobile